createdAt,value
2023-09-27T00:03:25.624Z,10.77
2023-09-27T00:08:18.406Z,12.87
2023-09-27T00:13:11.977Z,11.87
2023-09-27T00:18:07.299Z,14.80
2023-09-27T00:23:00.069Z,14.20
2023-09-27T00:27:52.742Z,11.50
2023-09-27T00:32:46.774Z,12.70
2023-09-27T00:37:41.677Z,14.90
2023-09-27T00:42:34.358Z,15.70
2023-09-27T00:47:26.994Z,16.30
2023-09-27T00:52:19.647Z,16.13
2023-09-27T00:57:14.404Z,11.00
2023-09-27T01:02:07.978Z,9.87
2023-09-27T01:07:01.400Z,9.43
2023-09-27T01:11:55.328Z,8.80
2023-09-27T01:16:49.411Z,8.00
2023-09-27T01:21:42.069Z,8.83
2023-09-27T01:26:36.164Z,7.40
2023-09-27T01:31:28.801Z,7.00
2023-09-27T01:36:21.536Z,6.47
2023-09-27T01:41:14.590Z,6.97
2023-09-27T01:46:08.667Z,7.40
2023-09-27T01:51:01.340Z,6.57
2023-09-27T01:55:54.027Z,7.17
2023-09-27T02:00:46.711Z,6.53
2023-09-27T02:05:40.773Z,6.50
2023-09-27T02:10:33.497Z,5.67
2023-09-27T02:15:26.138Z,5.60
2023-09-27T02:20:20.248Z,6.03
2023-09-27T02:25:14.492Z,5.17
2023-09-27T02:30:12.745Z,5.43
2023-09-27T02:35:08.236Z,5.33
2023-09-27T02:40:00.864Z,5.60
2023-09-27T02:44:54.862Z,7.93
2023-09-27T02:49:47.791Z,8.60
2023-09-27T02:54:40.493Z,8.40
2023-09-27T02:59:34.181Z,7.37
2023-09-27T03:04:29.392Z,8.40
2023-09-27T03:09:22.519Z,9.53
2023-09-27T03:14:15.180Z,11.47
2023-09-27T03:19:07.872Z,13.27
2023-09-27T03:24:01.792Z,15.10
2023-09-27T03:28:54.681Z,15.83
2023-09-27T03:33:47.555Z,16.37
2023-09-27T03:38:40.222Z,17.10
2023-09-27T03:43:34.186Z,16.33
2023-09-27T03:48:27.556Z,15.70
2023-09-27T03:53:21.901Z,14.93
2023-09-27T03:58:14.956Z,15.10
2023-09-27T04:03:09.247Z,15.50
2023-09-27T04:08:03.386Z,15.73
2023-09-27T04:12:56.197Z,17.87
2023-09-27T04:17:48.850Z,18.63
2023-09-27T04:22:43.269Z,20.17
2023-09-27T04:27:35.968Z,20.90
2023-09-27T04:32:28.650Z,21.07
2023-09-27T04:37:21.789Z,19.33
2023-09-27T04:42:15.797Z,14.90
2023-09-27T04:47:08.491Z,14.03
2023-09-27T04:52:01.123Z,12.00
2023-09-27T04:56:53.770Z,10.60
2023-09-27T05:01:49.005Z,10.00
2023-09-27T05:06:41.588Z,9.33
2023-09-27T05:11:34.266Z,10.47
2023-09-27T05:16:26.832Z,11.27
2023-09-27T05:21:20.872Z,8.90
2023-09-27T05:26:14.060Z,8.70
2023-09-27T05:31:06.711Z,8.30
2023-09-27T05:35:59.332Z,7.47
2023-09-27T05:40:53.364Z,7.20
2023-09-27T05:45:46.058Z,7.20
2023-09-27T05:50:38.958Z,8.20
2023-09-27T05:55:31.743Z,6.83
2023-09-27T06:00:28.349Z,7.27
2023-09-27T06:05:21.590Z,8.80
2023-09-27T06:10:14.258Z,9.47
2023-09-27T06:15:07.331Z,8.87
2023-09-27T06:20:06.238Z,9.83
2023-09-27T06:24:58.874Z,8.00
2023-09-27T06:29:51.444Z,7.30
2023-09-27T06:34:44.846Z,6.50
2023-09-27T06:39:38.948Z,7.30
2023-09-27T06:44:35.020Z,6.70
2023-09-27T06:49:27.728Z,7.77
2023-09-27T06:54:20.332Z,6.40
2023-09-27T06:59:14.451Z,7.00
2023-09-27T07:04:07.591Z,7.20
2023-09-27T07:09:00.220Z,6.80
2023-09-27T07:13:52.917Z,5.83
2023-09-27T07:18:47.021Z,6.00
2023-09-27T07:23:40.059Z,5.80
2023-09-27T07:28:33.582Z,5.50
2023-09-27T07:33:26.297Z,5.20
2023-09-27T07:38:20.916Z,5.03
2023-09-27T07:43:13.527Z,4.90
2023-09-27T07:48:06.824Z,4.80
2023-09-27T07:53:00.357Z,5.03
2023-09-27T07:57:55.316Z,6.00
2023-09-27T08:02:48.193Z,6.30
2023-09-27T08:07:41.366Z,5.87
2023-09-27T08:12:34.681Z,6.17
2023-09-27T08:17:28.984Z,5.57
2023-09-27T08:22:22.686Z,7.37
2023-09-27T08:27:15.317Z,7.47
2023-09-27T08:32:09.542Z,7.87
2023-09-27T08:37:04.673Z,7.03
2023-09-27T08:41:57.306Z,6.70
2023-09-27T08:46:51.894Z,5.87
2023-09-27T08:51:45.186Z,5.70
2023-09-27T08:56:39.407Z,6.30
2023-09-27T09:01:34.186Z,5.23
2023-09-27T09:06:27.141Z,5.53
2023-09-27T09:11:21.159Z,5.10
2023-09-27T09:16:19.117Z,5.50
2023-09-27T09:21:19.902Z,5.30
2023-09-27T09:26:12.549Z,5.87
2023-09-27T09:31:05.672Z,5.60
2023-09-27T09:35:59.640Z,5.40
2023-09-27T09:40:55.939Z,4.47
2023-09-27T09:45:48.932Z,5.30
2023-09-27T09:50:42.041Z,5.77
2023-09-27T09:56:08.987Z,6.03
2023-09-27T10:00:50.935Z,6.17
2023-09-27T10:05:44.495Z,6.07
2023-09-27T10:10:38.595Z,7.13
2023-09-27T10:15:33.486Z,6.50
2023-09-27T10:20:26.197Z,6.60
2023-09-27T10:25:32.531Z,5.57
2023-09-27T10:30:26.478Z,5.30
2023-09-27T10:35:22.948Z,4.73
2023-09-27T10:40:19.692Z,4.47
2023-09-27T10:45:12.327Z,5.40
2023-09-27T10:50:06.676Z,5.50
2023-09-27T10:55:09.800Z,5.20
2023-09-27T11:00:02.412Z,4.93
2023-09-27T11:04:56.936Z,4.63
2023-09-27T11:09:53.671Z,5.07
2023-09-27T11:14:48.056Z,6.07
2023-09-27T11:19:41.224Z,5.47
2023-09-27T11:24:38.306Z,5.43
2023-09-27T11:29:32.406Z,6.20
2023-09-27T11:34:25.300Z,5.40
2023-09-27T11:39:18.860Z,5.00
2023-09-27T11:44:20.920Z,5.53
2023-09-27T11:49:15.029Z,5.60
2023-09-27T11:54:07.923Z,5.30
2023-09-27T11:59:00.534Z,5.70
2023-09-27T12:03:53.547Z,4.77
2023-09-27T12:08:47.941Z,4.50
2023-09-27T12:13:42.002Z,5.00
2023-09-27T12:18:34.893Z,4.37
2023-09-27T12:23:27.666Z,4.30
2023-09-27T12:28:22.155Z,4.10
2023-09-27T12:33:15.278Z,4.30
2023-09-27T12:38:08.600Z,3.80
2023-09-27T12:43:01.327Z,4.33
2023-09-27T12:47:55.322Z,4.10
2023-09-27T12:52:48.006Z,4.10
2023-09-27T12:57:41.328Z,4.00
2023-09-27T13:02:34.395Z,4.00
2023-09-27T13:07:28.609Z,4.30
2023-09-27T13:12:21.226Z,3.97
2023-09-27T13:17:13.988Z,4.03
2023-09-27T13:22:07.536Z,4.30
2023-09-27T13:27:01.520Z,4.30
2023-09-27T13:31:54.177Z,3.97
2023-09-27T13:36:46.805Z,3.80
2023-09-27T13:41:41.750Z,3.40
2023-09-27T13:46:35.907Z,3.93
2023-09-27T13:51:29.446Z,3.80
2023-09-27T13:56:22.080Z,3.57
2023-09-27T14:01:14.763Z,4.00
2023-09-27T14:06:08.943Z,4.00
2023-09-27T14:11:02.178Z,4.17
2023-09-27T14:15:54.873Z,3.47
2023-09-27T14:20:47.728Z,3.47
2023-09-27T14:25:41.739Z,4.10
2023-09-27T14:30:34.474Z,4.03
2023-09-27T14:35:51.559Z,4.40
2023-09-27T14:40:40.246Z,4.77
2023-09-27T14:45:34.422Z,3.80
2023-09-27T14:50:27.226Z,3.80
2023-09-27T14:55:20.495Z,3.80
2023-09-27T15:00:13.823Z,3.90
2023-09-27T15:05:08.738Z,4.60
2023-09-27T15:10:01.435Z,3.90
2023-09-27T15:14:54.377Z,4.00
2023-09-27T15:19:47.041Z,4.77
2023-09-27T15:24:41.111Z,4.60
2023-09-27T15:29:33.785Z,4.50
2023-09-27T15:34:26.467Z,5.43
2023-09-27T15:39:20.401Z,5.40
2023-09-27T15:44:14.369Z,5.10
2023-09-27T15:49:07.611Z,4.50
2023-09-27T15:54:15.572Z,4.50
2023-09-27T15:59:11.029Z,4.80
2023-09-27T16:04:05.372Z,4.47
2023-09-27T16:08:58.243Z,4.83
2023-09-27T16:13:50.976Z,5.40
2023-09-27T16:18:43.655Z,5.67
2023-09-27T16:23:37.838Z,5.40
2023-09-27T16:28:30.515Z,5.70
2023-09-27T16:33:23.640Z,5.80
2023-09-27T16:38:16.334Z,6.67
2023-09-27T16:43:10.297Z,6.33
2023-09-27T16:48:02.950Z,6.57
2023-09-27T16:52:55.681Z,15.03
2023-09-27T16:57:48.372Z,36.03
2023-09-27T17:02:42.467Z,6.30
2023-09-27T17:07:35.433Z,6.40
2023-09-27T17:12:28.068Z,6.73
2023-09-27T17:17:20.789Z,6.70
2023-09-27T17:22:14.714Z,8.53
2023-09-27T17:27:07.591Z,7.63
2023-09-27T17:32:00.349Z,7.30
2023-09-27T17:36:53.061Z,6.90
2023-09-27T17:41:47.928Z,6.90
2023-09-27T17:46:40.669Z,7.60
2023-09-27T17:51:33.265Z,7.80
2023-09-27T17:56:25.931Z,7.50
2023-09-27T18:01:20.010Z,7.10
2023-09-27T18:06:14.091Z,7.30
2023-09-27T18:11:09.987Z,6.73
2023-09-27T18:16:02.775Z,6.70
2023-09-27T18:20:56.709Z,7.40
2023-09-27T18:25:49.394Z,6.70
2023-09-27T18:30:42.219Z,7.00
2023-09-27T18:35:36.130Z,6.17
2023-09-27T18:40:30.160Z,6.97
2023-09-27T18:45:22.773Z,6.57
2023-09-27T18:50:15.321Z,7.20
2023-09-27T18:55:08.372Z,7.23
2023-09-27T19:00:02.324Z,7.10
2023-09-27T19:04:55.312Z,7.67
2023-09-27T19:09:48.027Z,8.70
2023-09-27T19:14:40.593Z,10.50
2023-09-27T19:19:34.514Z,11.17
2023-09-27T19:24:27.148Z,10.47
2023-09-27T19:29:19.741Z,9.83
2023-09-27T19:34:12.383Z,10.80
2023-09-27T19:39:08.100Z,9.50
2023-09-27T19:44:00.854Z,10.67
2023-09-27T19:48:53.804Z,9.23
2023-09-27T19:53:46.714Z,9.07
2023-09-27T19:58:40.800Z,9.63
2023-09-27T20:03:33.372Z,9.70
2023-09-27T20:08:26.519Z,8.83
2023-09-27T20:13:19.095Z,8.80
2023-09-27T20:18:13.036Z,8.13
2023-09-27T20:23:05.840Z,7.93
2023-09-27T20:27:58.485Z,7.50
2023-09-27T20:32:51.110Z,7.80
2023-09-27T20:37:45.113Z,6.83
2023-09-27T20:42:37.731Z,6.97
2023-09-27T20:47:30.530Z,7.30
2023-09-27T20:52:23.250Z,7.47
2023-09-27T20:57:17.272Z,6.97
2023-09-27T21:02:10.343Z,7.67
2023-09-27T21:07:04.153Z,7.00
2023-09-27T21:11:57.036Z,7.43
2023-09-27T21:16:51.002Z,8.00
2023-09-27T21:21:43.671Z,7.00
2023-09-27T21:26:36.301Z,7.23
2023-09-27T21:31:28.985Z,7.80
2023-09-27T21:36:22.974Z,7.80
2023-09-27T21:41:15.674Z,7.83
2023-09-27T21:46:15.901Z,7.67
2023-09-27T21:51:08.473Z,8.00
2023-09-27T21:56:02.487Z,7.23
2023-09-27T22:00:55.362Z,7.50
2023-09-27T22:05:48.005Z,7.30
2023-09-27T22:10:43.583Z,7.37
2023-09-27T22:15:37.627Z,6.97
2023-09-27T22:20:31.020Z,7.33
2023-09-27T22:25:26.159Z,6.80
2023-09-27T22:30:18.845Z,6.70
2023-09-27T22:35:23.581Z,6.70
2023-09-27T22:40:20.408Z,6.80
2023-09-27T22:45:29.140Z,7.07
2023-09-27T22:50:29.687Z,6.43
2023-09-27T22:55:22.262Z,6.87
2023-09-27T23:00:21.063Z,6.80
2023-09-27T23:05:28.676Z,6.67
2023-09-27T23:10:25.950Z,6.80
2023-09-27T23:15:38.596Z,7.77
2023-09-27T23:20:32.400Z,6.87
2023-09-27T23:25:53.347Z,6.97
2023-09-27T23:30:51.225Z,6.60
2023-09-27T23:35:44.127Z,6.37
2023-09-27T23:40:42.434Z,6.43
2023-09-27T23:45:35.607Z,6.10
2023-09-27T23:50:31.393Z,6.93
2023-09-27T23:55:26.450Z,6.97
